createdAt,value
2023-01-05T00:00:53.590Z,26.14
2023-01-05T00:06:00.713Z,26.51
2023-01-05T00:11:07.931Z,26.35
2023-01-05T00:16:15.185Z,26.10
2023-01-05T00:21:22.300Z,26.04
2023-01-05T00:26:29.512Z,25.89
2023-01-05T00:31:36.810Z,25.84
2023-01-05T00:36:43.946Z,25.80
2023-01-05T00:41:51.193Z,25.65
2023-01-05T00:46:58.381Z,25.52
2023-01-05T00:52:05.562Z,25.41
2023-01-05T00:57:12.757Z,25.27
2023-01-05T01:02:20.149Z,25.14
2023-01-05T01:07:27.181Z,25.03
2023-01-05T01:12:34.431Z,24.90
2023-01-05T01:17:41.639Z,24.81
2023-01-05T01:22:48.787Z,24.68
2023-01-05T01:27:55.990Z,24.60
2023-01-05T01:33:03.188Z,24.48
2023-01-05T01:38:10.335Z,24.37
2023-01-05T01:43:17.612Z,24.26
2023-01-05T01:48:24.873Z,24.19
2023-01-05T01:53:31.998Z,24.11
2023-01-05T01:58:39.243Z,24.01
2023-01-05T02:03:46.514Z,23.93
2023-01-05T02:08:53.659Z,23.84
2023-01-05T02:14:00.857Z,23.73
2023-01-05T02:19:08.084Z,23.68
2023-01-05T02:24:15.268Z,23.62
2023-01-05T02:29:22.446Z,23.54
2023-01-05T02:34:29.677Z,23.49
2023-01-05T02:39:36.869Z,23.42
2023-01-05T02:44:44.083Z,23.37
2023-01-05T02:49:51.362Z,23.30
2023-01-05T02:54:58.582Z,23.27
2023-01-05T03:00:05.813Z,23.19
2023-01-05T03:05:13.028Z,23.15
2023-01-05T03:10:20.209Z,23.11
2023-01-05T03:15:27.407Z,23.03
2023-01-05T03:20:34.612Z,23.01
2023-01-05T03:25:41.795Z,22.94
2023-01-05T03:30:49.065Z,22.92
2023-01-05T03:35:56.247Z,22.90
2023-01-05T03:41:03.440Z,22.69
2023-01-05T03:46:10.755Z,22.72
2023-01-05T03:51:17.932Z,22.71
2023-01-05T03:56:25.143Z,22.69
2023-01-05T04:01:32.483Z,22.64
2023-01-05T04:06:39.572Z,22.59
2023-01-05T04:11:46.752Z,22.57
2023-01-05T04:16:53.961Z,22.54
2023-01-05T04:22:01.192Z,22.55
2023-01-05T04:27:08.324Z,22.53
2023-01-05T04:32:15.588Z,22.50
2023-01-05T04:37:22.757Z,22.48
2023-01-05T04:42:29.961Z,22.46
2023-01-05T04:47:37.106Z,22.43
2023-01-05T04:52:44.315Z,22.39
2023-01-05T04:57:51.516Z,22.36
2023-01-05T05:02:58.966Z,22.34
2023-01-05T05:08:05.978Z,22.32
2023-01-05T05:13:13.160Z,22.29
2023-01-05T05:18:20.535Z,22.26
2023-01-05T05:23:27.770Z,22.22
2023-01-05T05:28:34.942Z,22.15
2023-01-05T05:33:42.108Z,22.15
2023-01-05T05:38:49.326Z,22.15
2023-01-05T05:43:56.649Z,22.15
2023-01-05T05:49:03.855Z,22.14
2023-01-05T05:54:11.110Z,22.14
2023-01-05T05:59:18.258Z,22.12
2023-01-05T06:04:25.476Z,22.12
2023-01-05T06:09:32.689Z,22.12
2023-01-05T06:14:39.873Z,22.11
2023-01-05T06:19:47.083Z,22.10
2023-01-05T06:24:54.307Z,22.10
2023-01-05T06:30:01.553Z,22.08
2023-01-05T06:35:08.805Z,22.07
2023-01-05T06:40:16.047Z,22.04
2023-01-05T06:45:23.478Z,22.02
2023-01-05T06:50:30.610Z,21.99
2023-01-05T06:55:37.888Z,21.97
2023-01-05T07:00:45.180Z,21.96
2023-01-05T07:05:52.348Z,21.94
2023-01-05T07:10:59.553Z,21.90
2023-01-05T07:16:06.785Z,21.97
2023-01-05T07:21:13.960Z,22.02
2023-01-05T07:26:21.176Z,22.16
2023-01-05T07:31:28.384Z,22.35
2023-01-05T07:36:35.597Z,22.52
2023-01-05T07:41:42.847Z,22.68
2023-01-05T07:46:50.021Z,22.79
2023-01-05T07:51:57.270Z,22.87
2023-01-05T07:57:04.485Z,22.97
2023-01-05T08:02:11.907Z,23.06
2023-01-05T08:07:18.804Z,23.15
2023-01-05T08:12:26.009Z,23.16
2023-01-05T08:17:33.141Z,23.19
2023-01-05T08:22:40.508Z,23.24
2023-01-05T08:27:47.757Z,23.30
2023-01-05T08:32:54.928Z,23.35
2023-01-05T08:38:02.142Z,23.41
2023-01-05T08:43:09.368Z,23.47
2023-01-05T08:48:16.553Z,23.48
2023-01-05T08:53:23.813Z,23.47
2023-01-05T08:58:31.045Z,23.52
2023-01-05T09:03:38.314Z,23.58
2023-01-05T09:08:45.485Z,23.64
2023-01-05T09:13:52.780Z,23.69
2023-01-05T09:19:00.031Z,23.74
2023-01-05T09:24:07.255Z,23.78
2023-01-05T09:29:14.565Z,23.78
2023-01-05T09:34:21.788Z,23.79
2023-01-05T09:39:29.255Z,23.80
2023-01-05T09:44:36.644Z,23.82
2023-01-05T09:49:43.739Z,23.88
2023-01-05T09:54:50.919Z,23.99
2023-01-05T09:59:58.315Z,24.11
2023-01-05T10:05:05.701Z,24.12
2023-01-05T10:10:12.628Z,24.11
2023-01-05T10:15:19.818Z,24.21
2023-01-05T10:20:27.054Z,24.19
2023-01-05T10:25:34.279Z,24.23
2023-01-05T10:30:41.671Z,24.29
2023-01-05T10:36:00.548Z,24.34
2023-01-05T10:40:56.020Z,24.32
2023-01-05T10:46:31.204Z,24.23
2023-01-05T10:51:10.407Z,24.23
2023-01-05T10:56:17.564Z,24.23
2023-01-05T11:01:25.136Z,24.19
2023-01-05T11:06:31.971Z,24.25
2023-01-05T11:11:39.209Z,24.30
2023-01-05T11:16:46.510Z,24.36
2023-01-05T11:21:59.759Z,24.33
2023-01-05T11:27:00.785Z,24.38
2023-01-05T11:32:08.152Z,24.51
2023-01-05T11:37:15.228Z,24.74
2023-01-05T11:42:25.739Z,24.73
2023-01-05T11:47:29.803Z,24.57
2023-01-05T11:52:36.929Z,24.63
2023-01-05T11:57:44.126Z,24.62
2023-01-05T12:02:51.499Z,24.63
2023-01-05T12:07:58.540Z,24.69
2023-01-05T12:13:05.769Z,24.86
2023-01-05T12:18:13.001Z,24.77
2023-01-05T12:23:20.183Z,24.79
2023-01-05T12:28:40.668Z,24.88
2023-01-05T12:38:41.757Z,24.89
2023-01-05T12:43:48.907Z,24.90
2023-01-05T12:48:56.197Z,24.91
2023-01-05T12:54:03.275Z,24.82
2023-01-05T12:59:10.486Z,24.81
2023-01-05T13:04:17.830Z,24.79
2023-01-05T13:09:24.915Z,24.81
2023-01-05T13:14:32.192Z,24.78
2023-01-05T13:19:39.522Z,24.79
2023-01-05T13:24:46.600Z,24.86
2023-01-05T13:29:53.794Z,24.92
2023-01-05T13:35:01.202Z,24.93
2023-01-05T13:40:08.362Z,24.97
2023-01-05T13:45:15.656Z,24.86
2023-01-05T13:50:22.945Z,24.79
2023-01-05T13:55:30.012Z,24.75
2023-01-05T14:00:37.273Z,24.68
2023-01-05T14:05:44.588Z,24.87
2023-01-05T14:10:51.665Z,24.90
2023-01-05T14:15:58.861Z,24.81
2023-01-05T14:21:06.183Z,24.81
2023-01-05T14:26:13.283Z,24.91
2023-01-05T14:31:20.546Z,24.92
2023-01-05T14:36:27.872Z,24.90
2023-01-05T14:41:34.993Z,24.84
2023-01-05T14:46:42.139Z,24.85
2023-01-05T14:51:49.478Z,24.95
2023-01-05T14:56:56.504Z,24.94
2023-01-05T15:02:03.779Z,24.92
2023-01-05T15:07:11.122Z,24.36
2023-01-05T15:12:18.418Z,24.64
2023-01-05T15:17:25.639Z,24.65
2023-01-05T15:22:38.332Z,24.66
2023-01-05T15:27:40.035Z,24.59
2023-01-05T15:32:47.272Z,24.58
2023-01-05T15:37:54.675Z,24.65
2023-01-05T15:43:01.780Z,24.66
2023-01-05T15:48:09.416Z,24.65
2023-01-05T15:53:16.285Z,24.56
2023-01-05T15:58:23.410Z,24.51
2023-01-05T16:03:30.631Z,24.52
2023-01-05T16:08:38.004Z,24.67
2023-01-05T16:13:45.107Z,24.65
2023-01-05T16:18:52.340Z,24.59
2023-01-05T16:23:59.520Z,24.54
2023-01-05T16:29:06.697Z,24.52
2023-01-05T16:34:13.972Z,24.52
2023-01-05T16:39:21.326Z,24.48
2023-01-05T16:44:28.443Z,24.48
2023-01-05T16:49:37.357Z,24.55
2023-01-05T16:54:43.094Z,24.46
2023-01-05T16:59:50.163Z,24.42
2023-01-05T17:04:57.332Z,24.42
2023-01-05T17:10:04.695Z,24.42
2023-01-05T17:15:11.748Z,24.50
2023-01-05T17:20:19.163Z,24.57
2023-01-05T17:25:26.488Z,24.64
2023-01-05T17:30:33.700Z,24.67
2023-01-05T17:35:40.902Z,24.73
2023-01-05T17:40:48.501Z,24.72
2023-01-05T17:45:55.820Z,24.71
2023-01-05T17:51:03.104Z,24.69
2023-01-05T17:56:11.600Z,24.67
2023-01-05T18:01:19.017Z,24.65
2023-01-05T18:06:26.237Z,24.69
2023-01-05T18:16:40.634Z,24.69
2023-01-05T18:21:47.824Z,24.70
2023-01-05T18:26:55.988Z,24.73
2023-01-05T18:32:02.740Z,24.73
2023-01-05T18:37:20.280Z,24.74
2023-01-05T18:42:17.267Z,24.77
2023-01-05T18:47:24.364Z,24.76
2023-01-05T18:52:31.603Z,24.74
2023-01-05T18:57:39.042Z,24.74
2023-01-05T19:02:46.158Z,24.77
2023-01-05T19:07:53.375Z,24.80
2023-01-05T19:13:00.645Z,24.84
2023-01-05T19:18:07.773Z,24.84
2023-01-05T19:23:14.979Z,24.85
2023-01-05T19:28:22.472Z,24.86
2023-01-05T19:33:29.663Z,24.89
2023-01-05T19:38:36.875Z,24.92
2023-01-05T19:43:44.188Z,24.93
2023-01-05T19:48:51.292Z,24.95
2023-01-05T19:53:58.782Z,24.94
2023-01-05T19:59:06.265Z,24.95
2023-01-05T20:04:13.295Z,24.95
2023-01-05T20:09:20.523Z,24.96
2023-01-05T20:14:27.825Z,24.95
2023-01-05T20:19:34.918Z,24.98
2023-01-05T20:24:42.135Z,24.99
2023-01-05T20:29:49.748Z,24.98
2023-01-05T20:34:57.264Z,24.98
2023-01-05T20:40:04.731Z,24.89
2023-01-05T20:45:12.841Z,24.91
2023-01-05T20:50:19.080Z,24.91
2023-01-05T20:55:26.287Z,24.93
2023-01-05T21:00:33.686Z,24.87
2023-01-05T21:05:40.679Z,24.83
2023-01-05T21:10:47.901Z,24.77
2023-01-05T21:15:55.271Z,24.74
2023-01-05T21:21:02.274Z,24.68
2023-01-05T21:26:13.627Z,24.64
2023-01-05T21:31:16.919Z,24.57
2023-01-05T21:36:24.030Z,24.52
2023-01-05T21:41:31.305Z,24.48
2023-01-05T21:46:38.664Z,24.42
2023-01-05T21:51:45.751Z,24.35
2023-01-05T21:56:52.930Z,24.29
2023-01-05T22:02:00.253Z,24.22
2023-01-05T22:07:07.473Z,24.16
2023-01-05T22:12:14.596Z,24.11
2023-01-05T22:17:21.914Z,24.05
2023-01-05T22:22:29.065Z,24.00
2023-01-05T22:27:36.290Z,23.90
2023-01-05T22:32:43.617Z,23.87
2023-01-05T22:37:50.657Z,23.80
2023-01-05T22:42:57.896Z,23.72
2023-01-05T22:48:05.205Z,23.69
2023-01-05T22:53:12.341Z,23.65
2023-01-05T22:58:19.494Z,23.62
2023-01-05T23:03:26.824Z,23.56
2023-01-05T23:08:33.909Z,23.54
2023-01-05T23:13:41.127Z,23.50
2023-01-05T23:18:48.504Z,23.50
2023-01-05T23:23:55.575Z,23.46
2023-01-05T23:29:02.804Z,23.44
2023-01-05T23:34:10.136Z,23.44
2023-01-05T23:39:17.228Z,23.41
2023-01-05T23:44:24.445Z,23.38
2023-01-05T23:49:31.781Z,23.36
2023-01-05T23:54:38.888Z,23.34
2023-01-05T23:59:46.091Z,23.32
